Gloversville, NY (12078)

2:07 PM EDT on August 03, 2015 (GMT -0400)
Jackson Summit | | Change Station
CLOSE
Current Station
Personal Weather Station
Location: Mayfield, NY
Elevation: 1100 ft
Nearby Weather Stations

Elev 1100 ft 43.13 °N, 74.28 °W | Updated 1 minute ago

Partly Cloudy
Partly Cloudy
78.1 °F
Feels Like 80 °F
N
3.0
Wind Variable Wind from NW
Gusts 7.0 mph

Today
High -- | Low -- °F
--% Chance of Precip.
Yesterday
High -- | Low -- °F
Precip. -- in
5:49 AM 8:16 PM
Waning Gibbous, 85% visible
Pressure 29.73 in
Visibility 10.0 miles
Clouds Mostly Cloudy 6500 ft
Heat Index 80 °F
Dew Point 63 °F
Humidity 59%
Rainfall 0.00 in
Snow Depth Not available.
UV 5 out of 12
Pollen 8.40 out of 12
Air Quality Not available.
Flu Activity Not available.
METAR KSCH 031757Z 32006KT 10SM BKN065 31/14 A2973

More Conditions Fewer Conditions

Pressure 29.73 in
Visibility 10.0 miles
Clouds Mostly Cloudy 6500 ft
Heat Index 80 °F
Dew Point 63 °F
Humidity 59%
Rainfall 0.00 in
Snow Depth Not available.
UV 5 out of 12
Pollen 8.40 out of 12
Air Quality Not available.
Flu Activity Not available.
METAR KSCH 031757Z 32006KT 10SM BKN065 31/14 A2973

More Conditions Fewer Conditions

10-Day Weather Forecast

×

Almanac

Astronomy

Aug. 03, 2015 Rise Set
Actual Time
Civil Twilight
Nautical Twilight
Astronomical Twilight
Moon
Length of Visible Light
Length of Day
Tomorrow will be .
, % of the Moon is Illuminated

Today's Extremes

State Highs State Lows

Community

WunderPhotos

Upload Photos

1,843,696 photos uploaded!

WunderBlogs® & News

Nearby

Air Quality

  Air Quality AQ Index Pollutant
Not available.

Snow Depth

Station Depth Elevation

Earthquake Activity

City Distance Mag. Time & Date
Minimum magnitude displayed is 2.5.

Coastal Water Temperatures

Place Temperature

Stations

Nearby Weather Stations

Station Location Temp. Windchill Dew Point Humidity Wind Precip. Elev Updated Type